Flight Track Log - Related Links

Times and Time Zones

All times are in EDT time to prevent confusion due to time zone crossing. See the AWE1454 flight status page for this flight to view local times or setup timezone preferences in your user account.

Time Position Orientation Groundspeed Altitude Reporting Facility
EDT Latitude Longitude Course Direction KTS MPH feet Rate Location/Type
Tue 04:22:32 PM 39.8833 -75.2167 37° Northeast 138 159 800  Level Philadelphia TRACON
Tue 04:23:26 PM 39.8667 -75.1667 113° Southeast 200 230 1,900 1,667 Climbing Philadelphia TRACON
Tue 04:24:00 PM 39.8072 -74.8191 105° East  Level FlightAware Approximate
Tue 04:24:20 PM 39.8667 -75.1000 90° East 228 262 3,800  Level Philadelphia TRACON
Tue 04:25:00 PM 39.7960 -74.6874 37° Northeast  Level FlightAware Approximate
Tue 04:26:00 PM 39.8836 -74.5998 37° Northeast  Level FlightAware Approximate
Tue 04:26:41 PM 39.8314 -74.8797 102° East 280 322 9,700  Level New York Center
Tue 04:27:00 PM 39.9747 -74.5253 37° Northeast  Level FlightAware Approximate
Tue 04:27:42 PM 39.8161 -74.7842 102° East 287 330 10,700  Level New York Center
Tue 04:28:42 PM 39.8489 -74.6753 69° East 298 343 12,800 2,085 Climbing New York Center
Tue 04:29:40 PM 39.9244 -74.5956 39° Northeast 298 343 14,800 1,966 Climbing New York Center
Tue 04:30:41 PM 40.0042 -74.5158 37° Northeast 326 375 16,700 1,770 Climbing New York Center
Tue 04:31:42 PM 40.0944 -74.4231 38° Northeast 354 407 18,400 1,462 Climbing New York Center
Tue 04:32:40 PM 40.1678 -74.3456 39° Northeast 370 426 19,600 1,311 Climbing New York Center
Tue 04:33:41 PM 40.2558 -74.2603 36° Northeast 381 438 21,000 1,525 Climbing New York Center
Tue 04:34:42 PM 40.3439 -74.1722 37° Northeast 386 444 22,700 1,438 Climbing New York Center
Tue 04:35:42 PM 40.4339 -74.0839 37° Northeast 393 452 23,900 1,193 Climbing New York Center
Tue 04:37:38 PM 40.6236 -73.9111 35° Northeast 412 474 26,200 1,085 Climbing Boston Center
Tue 04:38:50 PM 40.7578 -73.8456 20° North 417 480 27,300 909 Climbing Boston Center
Tue 04:39:50 PM 40.8708 -73.7906 20° North 423 487 28,200 1,000 Climbing Boston Center
Tue 04:40:50 PM 40.9842 -73.7322 21° North 428 493 29,300 1,000 Climbing Boston Center
Tue 04:41:50 PM 41.0972 -73.6794 19° North 433 498 30,200 1,050 Climbing Boston Center
Tue 04:42:50 PM 41.2161 -73.6792 360° North 418 481 31,400 1,050 Climbing Boston Center
Tue 04:43:50 PM 41.3328 -73.6869 357° North 418 481 32,300 800 Climbing Boston Center
Tue 04:44:50 PM 41.4514 -73.6947 357° North 418 481 33,000 350 Climbing Boston Center
Tue 04:45:50 PM 41.5742 -73.7028 357° North 423 487 33,000  Level Boston Center
Tue 04:46:50 PM 41.6931 -73.7133 356° North 428 493 33,000 -50 Level Boston Center
Tue 04:47:50 PM 41.8097 -73.7044 North 428 493 32,900 -950 Descending Boston Center
Tue 04:48:50 PM 41.9047 -73.6033 38° Northeast 406 467 31,100 -1,600 Descending Boston Center
Tue 04:49:50 PM 42.0058 -73.4850 41° Northeast 415 478 29,700 -1,750 Descending Boston Center
Tue 04:50:50 PM 42.0758 -73.3519 55° Northeast 428 493 27,600 -1,950 Descending Boston Center
Tue 04:51:50 PM 42.1536 -73.2439 46° Northeast 420 483 25,800 -1,800 Descending Boston Center
Tue 04:52:50 PM 42.2317 -73.1297 47° Northeast 415 478 24,000 -1,750 Descending Boston Center
Tue 04:53:50 PM 42.3072 -73.0183 47° Northeast 405 466 22,300 -1,800 Descending Boston Center
Tue 04:54:50 PM 42.3828 -72.8983 50° Northeast 411 473 20,400 -1,650 Descending Boston Center
Tue 04:55:50 PM 42.4603 -72.7892 46° Northeast 387 445 19,000 -750 Descending Boston Center
Tue 04:56:50 PM 42.5272 -72.6822 50° Northeast 371 427 18,900 -950 Descending Boston Center
Tue 04:57:50 PM 42.5753 -72.5586 62° Northeast 366 421 17,100 50 Descending Boston Center
Tue 04:58:50 PM 42.6233 -72.4372 62° Northeast 366 421 19,000 -1,900 Climbing Boston Center
Tue 04:59:50 PM 42.6714 -72.3158 62° Northeast 361 415 13,300 -3,800 Descending Boston Center
Tue 05:00:50 PM 42.7086 -72.2142 63° Northeast 341 392 11,400 -1,500 Descending Boston Center
Tue 05:01:50 PM 42.7542 -72.0981 62° Northeast 328 377 10,300 -1,200 Descending Boston Center
Tue 05:02:50 PM 42.7914 -72.0186 57° Northeast 294 338 9,000 -950 Descending Boston Center
Tue 05:03:50 PM 42.8369 -71.9164 59° Northeast 277 319 8,400 -1,050 Descending Boston Center
Tue 05:04:50 PM 42.8719 -71.8367 59° Northeast 272 313 6,900 -1,650 Descending Boston Center
Tue 05:05:50 PM 42.9278 -71.7539 47° Northeast 267 307 5,100 -1,600 Descending Boston Center
Tue 05:06:50 PM 42.9772 -71.6939 42° Northeast 261 300 3,700 -1,350 Descending Boston Center
Tue 05:07:50 PM 43.0353 -71.6219 42° Northeast 261 300 2,400 -800 Descending Boston Center
Tue 05:08:50 PM 43.0661 -71.5675 52° Northeast 220 253 2,100 -300 Descending Boston Center

Login

Don't have an account? Register now (free) for customized features, flight alerts, and more!